createdAt,value
2019-04-06T00:00:24.410Z,37.90
2019-04-06T00:04:27.413Z,39.80
2019-04-06T00:08:30.492Z,41.10
2019-04-06T00:12:33.597Z,38.10
2019-04-06T00:16:36.625Z,39.47
2019-04-06T00:20:39.627Z,41.97
2019-04-06T00:24:42.641Z,43.73
2019-04-06T00:28:45.786Z,41.87
2019-04-06T00:32:50.787Z,37.63
2019-04-06T00:36:53.810Z,39.63
2019-04-06T00:40:56.807Z,38.43
2019-04-06T00:44:59.802Z,39.47
2019-04-06T00:49:02.786Z,35.37
2019-04-06T00:53:05.839Z,39.67
2019-04-06T00:57:10.816Z,40.53
2019-04-06T01:01:13.911Z,36.87
2019-04-06T01:05:17.028Z,37.43
2019-04-06T01:09:21.895Z,36.70
2019-04-06T01:13:25.011Z,35.67
2019-04-06T01:17:28.882Z,33.50
2019-04-06T01:21:32.065Z,40.67
2019-04-06T01:25:35.060Z,41.47
2019-04-06T01:29:38.060Z,38.30
2019-04-06T01:33:41.106Z,36.10
2019-04-06T01:37:44.288Z,36.17
2019-04-06T01:41:47.295Z,44.33
2019-04-06T01:45:50.416Z,39.03
2019-04-06T01:49:53.504Z,38.93
2019-04-06T01:53:56.553Z,32.17
2019-04-06T01:58:00.445Z,39.07
2019-04-06T02:02:14.717Z,34.27
2019-04-06T02:06:17.754Z,42.93
2019-04-06T02:10:20.928Z,33.90
2019-04-06T02:14:25.159Z,31.67
2019-04-06T02:18:28.276Z,32.40
2019-04-06T02:22:31.367Z,30.23
2019-04-06T02:26:34.372Z,33.13
2019-04-06T02:30:39.359Z,35.70
2019-04-06T02:34:47.211Z,38.50
2019-04-06T02:38:57.878Z,33.90
2019-04-06T02:43:05.555Z,32.33
2019-04-06T02:47:08.587Z,36.27
2019-04-06T02:51:11.591Z,32.47
2019-04-06T02:55:15.612Z,34.70
2019-04-06T02:59:19.181Z,31.30
2019-04-06T03:03:22.303Z,29.90
2019-04-06T03:07:25.443Z,27.10
2019-04-06T03:11:28.513Z,28.97
2019-04-06T03:15:31.521Z,27.37
2019-04-06T03:19:34.705Z,85.57
2019-04-06T03:23:49.837Z,22.13
2019-04-06T03:27:42.638Z,30.37
2019-04-06T03:31:45.843Z,22.00
2019-04-06T03:35:50.375Z,24.60
2019-04-06T03:39:53.765Z,18.90
2019-04-06T03:43:56.766Z,21.63
2019-04-06T03:47:59.772Z,30.77
2019-04-06T03:52:02.822Z,32.83
2019-04-06T03:56:05.900Z,30.60
2019-04-06T04:00:10.869Z,18.30
2019-04-06T04:04:13.876Z,18.57
2019-04-06T04:08:16.888Z,24.27
2019-04-06T04:12:19.897Z,29.47
2019-04-06T04:16:23.042Z,16.10
2019-04-06T04:20:26.461Z,15.00
2019-04-06T04:24:29.642Z,15.63
2019-04-06T04:28:32.916Z,14.20
2019-04-06T04:32:36.102Z,15.37
2019-04-06T04:36:39.165Z,14.77
2019-04-06T04:40:42.215Z,13.97
2019-04-06T04:44:45.935Z,14.73
2019-04-06T04:48:49.876Z,14.40
2019-04-06T04:52:53.103Z,15.60
2019-04-06T04:56:56.306Z,13.53
2019-04-06T05:01:00.020Z,16.07
2019-04-06T05:05:04.968Z,16.67
2019-04-06T05:09:08.625Z,15.63
2019-04-06T05:13:11.645Z,15.07
2019-04-06T05:17:15.568Z,16.43
2019-04-06T05:21:18.568Z,16.37
2019-04-06T05:25:21.594Z,14.97
2019-04-06T05:29:24.698Z,17.07
2019-04-06T05:33:27.792Z,17.87
2019-04-06T05:37:30.808Z,20.30
2019-04-06T05:41:33.981Z,23.50
2019-04-06T05:45:37.157Z,25.67
2019-04-06T05:49:41.897Z,24.90
2019-04-06T05:53:44.971Z,20.40
2019-04-06T05:57:47.974Z,27.43
2019-04-06T06:01:52.277Z,22.60
2019-04-06T06:05:55.332Z,23.67
2019-04-06T06:09:58.433Z,26.67
2019-04-06T06:14:02.844Z,25.10
2019-04-06T06:18:05.839Z,29.43
2019-04-06T06:22:08.851Z,26.70
2019-04-06T06:26:11.855Z,27.03
2019-04-06T06:30:15.745Z,28.40
2019-04-06T06:34:19.028Z,30.13
2019-04-06T06:38:22.037Z,28.83
2019-04-06T06:42:25.041Z,29.30
2019-04-06T06:46:28.036Z,26.20
2019-04-06T06:50:31.042Z,32.93
2019-04-06T06:54:35.035Z,34.17
2019-04-06T06:58:38.410Z,32.73
2019-04-06T07:02:41.887Z,45.63
2019-04-06T07:06:45.008Z,36.93
2019-04-06T07:10:48.159Z,44.20
2019-04-06T07:14:51.248Z,35.87
2019-04-06T07:18:54.305Z,35.13
2019-04-06T07:22:57.720Z,30.00
2019-04-06T07:27:01.152Z,29.73
2019-04-06T07:31:04.215Z,34.73
2019-04-06T07:35:07.568Z,33.77
2019-04-06T07:39:10.585Z,33.67
2019-04-06T07:43:13.729Z,30.67
2019-04-06T07:47:16.806Z,35.00
2019-04-06T07:51:19.852Z,28.73
2019-04-06T07:55:23.115Z,33.60
2019-04-06T07:59:26.167Z,29.13
2019-04-06T08:03:30.520Z,32.90
2019-04-06T08:07:33.566Z,32.60
2019-04-06T08:11:36.668Z,34.73
2019-04-06T08:15:39.914Z,35.20
2019-04-06T08:19:43.141Z,29.23
2019-04-06T08:23:46.668Z,35.37
2019-04-06T08:27:49.788Z,32.97
2019-04-06T08:31:52.836Z,35.20
2019-04-06T08:35:56.064Z,27.53
2019-04-06T08:39:59.247Z,31.53
2019-04-06T08:44:03.714Z,33.97
2019-04-06T08:48:06.867Z,31.07
2019-04-06T08:52:11.669Z,29.70
2019-04-06T08:56:14.893Z,30.37
2019-04-06T09:00:18.204Z,27.80
2019-04-06T09:04:21.708Z,29.57
2019-04-06T09:08:24.777Z,29.70
2019-04-06T09:12:27.918Z,30.53
2019-04-06T09:16:31.040Z,31.40
2019-04-06T09:20:34.062Z,29.53
2019-04-06T09:24:37.370Z,29.10
2019-04-06T09:28:40.404Z,29.33
2019-04-06T09:32:44.242Z,26.47
2019-04-06T09:36:47.440Z,30.57
2019-04-06T09:40:50.867Z,31.23
2019-04-06T09:44:55.922Z,31.07
2019-04-06T09:49:03.805Z,31.60
2019-04-06T09:53:26.704Z,32.00
2019-04-06T09:57:37.532Z,30.80
2019-04-06T10:01:59.047Z,34.43
2019-04-06T10:06:06.291Z,32.63
2019-04-06T10:10:21.715Z,34.60
2019-04-06T10:14:29.772Z,31.73
2019-04-06T10:18:34.706Z,33.77
2019-04-06T10:22:39.619Z,34.00
2019-04-06T10:26:47.303Z,35.30
2019-04-06T10:31:01.533Z,36.57
2019-04-06T10:35:06.654Z,35.00
2019-04-06T10:39:14.817Z,32.60
2019-04-06T10:43:19.955Z,32.70
2019-04-06T10:47:27.864Z,32.17
2019-04-06T10:51:41.872Z,34.70
2019-04-06T10:55:55.413Z,33.70
2019-04-06T11:00:03.463Z,33.20
2019-04-06T11:04:14.396Z,32.10
2019-04-06T11:08:26.024Z,35.67
2019-04-06T11:12:31.199Z,31.63
2019-04-06T11:16:42.307Z,34.97
2019-04-06T11:20:47.460Z,33.33
2019-04-06T11:24:58.180Z,36.43
2019-04-06T11:29:08.928Z,36.83
2019-04-06T11:33:13.994Z,35.30
2019-04-06T11:37:18.916Z,32.13
2019-04-06T11:41:29.369Z,34.43
2019-04-06T11:45:34.277Z,32.80
2019-04-06T11:49:48.158Z,32.53
2019-04-06T11:53:55.848Z,33.70
2019-04-06T11:58:03.599Z,36.07
2019-04-06T12:02:08.878Z,31.77
2019-04-06T12:06:13.917Z,36.10
2019-04-06T12:10:20.174Z,24.73
2019-04-06T12:14:25.632Z,20.17
2019-04-06T12:18:36.344Z,17.23
2019-04-06T12:22:41.379Z,21.87
2019-04-06T12:26:52.155Z,24.70
2019-04-06T12:31:05.973Z,22.90
2019-04-06T12:35:11.031Z,23.90
2019-04-06T12:39:28.093Z,21.67
2019-04-06T12:43:49.725Z,22.43
2019-04-06T12:47:57.358Z,26.10
2019-04-06T12:52:08.269Z,22.17
2019-04-06T12:56:16.361Z,22.33
2019-04-06T13:00:27.301Z,24.33
2019-04-06T13:04:32.253Z,24.70
2019-04-06T13:08:43.128Z,21.50
2019-04-06T13:13:05.200Z,24.10
2019-04-06T13:17:13.063Z,23.33
2019-04-06T13:21:34.666Z,23.17
2019-04-06T13:25:56.219Z,22.57
2019-04-06T13:30:04.270Z,22.50
2019-04-06T13:34:14.893Z,23.10
2019-04-06T13:38:23.233Z,25.60
2019-04-06T13:42:44.999Z,26.00
2019-04-06T13:46:49.921Z,24.80
2019-04-06T13:50:54.864Z,24.97
2019-04-06T13:55:02.276Z,23.43
2019-04-06T13:59:09.723Z,25.43
2019-04-06T14:03:14.857Z,23.37
2019-04-06T14:07:36.929Z,21.60
2019-04-06T14:11:54.005Z,25.13
2019-04-06T14:16:09.334Z,24.47
2019-04-06T14:20:14.813Z,24.40
2019-04-06T14:24:19.863Z,22.27
2019-04-06T14:28:41.535Z,24.40
2019-04-06T14:32:58.725Z,24.07
2019-04-06T14:37:06.344Z,23.17
2019-04-06T14:41:26.703Z,19.77
2019-04-06T14:45:37.156Z,23.40
2019-04-06T14:49:51.010Z,21.90
2019-04-06T14:53:56.048Z,22.30
2019-04-06T14:58:10.215Z,23.03
2019-04-06T15:02:31.596Z,24.13
2019-04-06T15:06:39.380Z,25.47
2019-04-06T15:11:00.789Z,24.63
2019-04-06T15:15:16.338Z,24.00
2019-04-06T15:19:39.094Z,23.97
2019-04-06T15:23:44.301Z,25.17
2019-04-06T15:27:49.673Z,22.10
2019-04-06T15:32:09.385Z,23.10
2019-04-06T15:36:17.336Z,20.70
2019-04-06T15:40:40.938Z,18.23
2019-04-06T15:44:47.831Z,19.10
2019-04-06T15:48:58.946Z,17.00
2019-04-06T15:53:22.081Z,24.83
2019-04-06T15:57:36.038Z,23.23
2019-04-06T16:01:40.963Z,24.83
2019-04-06T16:05:45.886Z,22.77
2019-04-06T16:09:56.660Z,23.37
2019-04-06T16:14:01.616Z,21.93
2019-04-06T16:18:09.588Z,24.20
2019-04-06T16:22:15.950Z,21.40
2019-04-06T16:26:21.077Z,22.53
2019-04-06T16:30:26.230Z,22.57
2019-04-06T16:34:34.258Z,20.23
2019-04-06T16:38:56.036Z,21.10
2019-04-06T16:43:19.266Z,21.00
2019-04-06T16:47:30.401Z,18.97
2019-04-06T16:51:35.481Z,20.27
2019-04-06T16:55:40.695Z,20.83
2019-04-06T16:59:45.691Z,19.53
2019-04-06T17:03:50.584Z,20.03
2019-04-06T17:07:56.021Z,20.97
2019-04-06T17:12:00.972Z,24.33
2019-04-06T17:16:08.648Z,22.43
2019-04-06T17:20:30.220Z,22.47
2019-04-06T17:24:42.107Z,21.20
2019-04-06T17:29:03.518Z,20.80
2019-04-06T17:33:11.558Z,20.03
2019-04-06T17:37:22.557Z,24.83
2019-04-06T17:41:42.247Z,32.33
2019-04-06T17:45:47.200Z,21.07
2019-04-06T17:50:06.867Z,21.50
2019-04-06T17:54:15.056Z,22.57
2019-04-06T17:58:22.675Z,24.73
2019-04-06T18:02:48.699Z,23.17
2019-04-06T18:06:53.545Z,21.30
2019-04-06T18:10:58.451Z,21.80
2019-04-06T18:15:03.575Z,24.73
2019-04-06T18:19:06.816Z,24.33
2019-04-06T18:23:09.973Z,23.50
2019-04-06T18:27:14.104Z,22.93
2019-04-06T18:31:19.141Z,23.57
2019-04-06T18:35:22.322Z,21.73
2019-04-06T18:39:26.691Z,21.60
2019-04-06T18:43:29.787Z,25.03
2019-04-06T18:47:32.796Z,26.30
2019-04-06T18:51:36.603Z,23.97
2019-04-06T18:55:40.098Z,23.90
2019-04-06T18:59:43.255Z,23.73
2019-04-06T19:03:47.678Z,27.40
2019-04-06T19:07:50.696Z,22.00
2019-04-06T19:11:56.583Z,23.93
2019-04-06T19:15:58.698Z,23.50
2019-04-06T19:20:04.070Z,25.03
2019-04-06T19:24:07.120Z,22.00
2019-04-06T19:28:11.058Z,24.87
2019-04-06T19:32:14.142Z,23.50
2019-04-06T19:36:17.317Z,26.10
2019-04-06T19:40:20.317Z,24.50
2019-04-06T19:44:26.013Z,26.20
2019-04-06T19:48:29.158Z,27.63
2019-04-06T19:52:32.220Z,24.83
2019-04-06T19:56:35.319Z,25.50
2019-04-06T20:00:38.414Z,31.00
2019-04-06T20:04:41.855Z,27.50
2019-04-06T20:08:45.019Z,28.20
2019-04-06T20:12:48.088Z,28.80
2019-04-06T20:16:51.343Z,30.60
2019-04-06T20:20:54.451Z,29.37
2019-04-06T20:24:57.645Z,28.40
2019-04-06T20:29:02.494Z,26.63
2019-04-06T20:33:05.919Z,28.13
2019-04-06T20:37:09.419Z,25.37
2019-04-06T20:41:12.556Z,25.20
2019-04-06T20:45:16.471Z,26.03
2019-04-06T20:49:19.825Z,26.30
2019-04-06T20:53:22.904Z,25.27
2019-04-06T20:57:26.072Z,28.07
2019-04-06T21:05:30.090Z,22.93
2019-04-06T21:09:35.281Z,23.40
2019-04-06T21:13:38.264Z,23.30
2019-04-06T21:17:41.372Z,23.60
2019-04-06T21:21:44.471Z,25.40
2019-04-06T21:25:47.557Z,36.77
2019-04-06T21:29:52.876Z,24.77
2019-04-06T21:33:56.084Z,26.93
2019-04-06T21:37:59.637Z,25.70
2019-04-06T21:42:03.302Z,27.83
2019-04-06T21:46:06.717Z,37.20
2019-04-06T21:50:10.174Z,32.27
2019-04-06T21:54:13.732Z,28.70
2019-04-06T21:58:20.148Z,26.13
2019-04-06T22:02:23.274Z,28.63
2019-04-06T22:06:26.461Z,25.07
2019-04-06T22:10:29.828Z,25.77
2019-04-06T22:14:33.324Z,24.43
2019-04-06T22:18:36.404Z,26.97
2019-04-06T22:22:39.513Z,25.57
2019-04-06T22:26:42.807Z,26.20
2019-04-06T22:30:47.751Z,26.00
2019-04-06T22:34:50.998Z,26.80
2019-04-06T22:38:54.117Z,27.33
2019-04-06T22:42:57.311Z,29.33
2019-04-06T22:47:00.414Z,27.17
2019-04-06T22:51:03.512Z,27.00
2019-04-06T22:55:07.524Z,27.87
2019-04-06T22:59:11.187Z,28.50
2019-04-06T23:03:34.407Z,26.70
2019-04-06T23:07:37.648Z,27.50
2019-04-06T23:11:40.944Z,27.63
2019-04-06T23:15:44.112Z,28.00
2019-04-06T23:19:47.148Z,27.80
2019-04-06T23:23:50.475Z,28.33
2019-04-06T23:27:53.565Z,27.90
2019-04-06T23:31:57.632Z,27.23
2019-04-06T23:36:01.121Z,25.93
2019-04-06T23:40:05.385Z,29.50
2019-04-06T23:44:08.889Z,29.43
2019-04-06T23:48:12.074Z,29.70
2019-04-06T23:52:15.224Z,29.17
2019-04-06T23:56:18.784Z,27.73
